createdAt,value
2022-09-15T00:22:12.334Z,16.90
2022-09-15T00:31:45.306Z,16.80
2022-09-15T00:36:17.953Z,16.80
2022-09-15T00:40:46.662Z,16.80
2022-09-15T00:49:41.836Z,16.70
2022-09-15T00:58:19.075Z,16.60
2022-09-15T01:07:03.999Z,16.50
2022-09-15T01:15:58.827Z,16.50
2022-09-15T01:20:37.643Z,16.50
2022-09-15T01:35:18.975Z,16.40
2022-09-15T01:49:54.450Z,16.40
2022-09-15T02:49:46.568Z,16.50
2022-09-15T04:07:42.765Z,16.30
2022-09-15T04:25:47.411Z,16.30
2022-09-15T06:13:55.709Z,17.70
2022-09-15T06:40:03.408Z,18.10
2022-09-15T06:49:29.227Z,17.80
2022-09-15T06:53:33.702Z,17.60
2022-09-15T08:09:25.087Z,19.20
2022-09-15T08:18:11.990Z,19.20
2022-09-15T08:22:16.895Z,19.30
2022-09-15T08:26:22.146Z,19.30
2022-09-15T08:34:50.863Z,19.30
2022-09-15T08:43:50.527Z,19.10
2022-09-15T09:02:23.913Z,18.80
2022-09-15T09:07:26.106Z,18.80
2022-09-15T09:11:38.440Z,18.80
2022-09-15T09:16:07.418Z,18.90
2022-09-15T09:20:40.531Z,19.00
2022-09-15T09:24:49.467Z,18.90
2022-09-15T09:29:08.131Z,18.80
2022-09-15T09:33:47.921Z,18.80
2022-09-15T09:55:57.424Z,18.30
2022-09-15T10:09:00.690Z,18.30
2022-09-15T10:13:05.537Z,18.20
2022-09-15T10:17:13.808Z,18.10
2022-09-15T10:21:26.867Z,18.00
2022-09-15T10:25:55.063Z,17.90
2022-09-15T10:30:21.769Z,17.80
2022-09-15T10:34:38.847Z,17.80
2022-09-15T10:38:45.963Z,17.80
2022-09-15T10:48:33.895Z,17.90
2022-09-15T10:53:13.537Z,17.90
2022-09-15T10:57:39.153Z,18.00
2022-09-15T11:06:57.678Z,18.10
2022-09-15T11:11:40.814Z,18.10
2022-09-15T11:25:25.721Z,18.20
2022-09-15T11:38:53.452Z,18.10
2022-09-15T11:48:08.521Z,18.00
2022-09-15T11:57:01.965Z,17.90
2022-09-15T12:05:41.588Z,17.80
2022-09-15T12:09:50.484Z,17.70
2022-09-15T12:14:00.646Z,17.80
2022-09-15T12:18:42.722Z,17.90
2022-09-15T12:27:52.834Z,18.20
2022-09-15T12:37:05.717Z,18.40
2022-09-15T12:54:52.235Z,18.70
2022-09-15T13:04:02.799Z,18.90
2022-09-15T13:08:16.880Z,19.10
2022-09-15T13:12:21.700Z,19.10
2022-09-15T13:21:12.660Z,19.20
2022-09-15T13:29:50.541Z,19.10
2022-09-15T13:38:49.637Z,19.20
2022-09-15T13:43:25.924Z,19.10
2022-09-15T13:48:04.033Z,18.80
2022-09-15T13:52:31.152Z,18.60
2022-09-15T13:56:51.191Z,18.10
2022-09-15T14:01:01.335Z,17.60
2022-09-15T14:05:03.530Z,17.50
2022-09-15T14:09:16.642Z,17.50
2022-09-15T14:13:21.210Z,17.20
2022-09-15T14:17:27.001Z,17.00
2022-09-15T14:21:34.894Z,16.90
2022-09-15T14:25:39.929Z,16.80
2022-09-15T14:29:44.659Z,16.80
2022-09-15T14:33:49.686Z,16.60
2022-09-15T14:37:58.816Z,16.50
2022-09-15T14:42:23.020Z,16.40
2022-09-15T14:46:37.278Z,16.40
2022-09-15T14:50:39.557Z,16.40
2022-09-15T14:54:41.775Z,16.40
2022-09-15T14:59:09.917Z,16.40
2022-09-15T15:03:32.507Z,16.40
2022-09-15T15:07:38.224Z,16.40
2022-09-15T15:11:42.393Z,16.80
2022-09-15T15:15:47.320Z,17.20
2022-09-15T15:19:58.551Z,17.60
2022-09-15T15:24:18.992Z,17.70
2022-09-15T15:28:36.399Z,17.70
2022-09-15T15:32:53.280Z,17.70
2022-09-15T15:37:05.252Z,17.70
2022-09-15T15:41:10.718Z,17.70
2022-09-15T15:58:28.274Z,17.50
2022-09-15T16:02:33.650Z,17.50
2022-09-15T16:06:38.460Z,17.50
2022-09-15T16:10:45.502Z,17.40
2022-09-15T16:14:47.873Z,17.40
2022-09-15T16:18:51.790Z,17.40
2022-09-15T16:23:00.392Z,17.40
2022-09-15T16:27:05.443Z,17.30
2022-09-15T16:31:13.878Z,17.20
2022-09-15T16:35:43.714Z,17.10
2022-09-15T16:39:47.700Z,17.00
2022-09-15T16:43:50.652Z,16.90
2022-09-15T16:47:55.069Z,16.80
2022-09-15T16:51:58.292Z,16.70
2022-09-15T16:56:02.566Z,16.60
2022-09-15T17:00:18.138Z,16.50
2022-09-15T17:04:23.028Z,16.40
2022-09-15T17:08:32.672Z,16.40
2022-09-15T17:12:36.382Z,16.30
2022-09-15T17:16:40.017Z,16.30
2022-09-15T17:20:46.102Z,16.30
2022-09-15T17:24:48.427Z,16.30
2022-09-15T17:28:53.180Z,16.30
2022-09-15T17:33:06.986Z,16.30
2022-09-15T17:37:09.723Z,16.20
2022-09-15T17:41:20.111Z,16.20
2022-09-15T17:45:27.442Z,16.20
2022-09-15T17:49:30.390Z,16.20
2022-09-15T17:53:34.361Z,16.20
2022-09-15T17:57:37.608Z,16.20
2022-09-15T18:01:41.526Z,16.10
2022-09-15T18:05:44.832Z,16.00
2022-09-15T18:09:49.820Z,16.00
2022-09-15T18:13:52.909Z,16.00
2022-09-15T18:18:03.322Z,16.00
2022-09-15T18:22:05.681Z,16.00
2022-09-15T18:26:07.802Z,16.00
2022-09-15T18:30:14.019Z,16.00
2022-09-15T18:34:16.433Z,15.90
2022-09-15T18:38:20.635Z,15.90
2022-09-15T18:42:23.622Z,15.90
2022-09-15T18:46:29.551Z,15.90
2022-09-15T18:50:34.048Z,15.80
2022-09-15T18:54:36.705Z,15.80
2022-09-15T18:58:39.110Z,15.60
2022-09-15T19:02:42.188Z,15.40
2022-09-15T19:06:45.549Z,14.90
2022-09-15T19:10:59.270Z,14.80
2022-09-15T19:15:03.279Z,14.90
2022-09-15T19:19:07.002Z,14.90
2022-09-15T19:23:12.003Z,15.00
2022-09-15T19:27:18.542Z,15.00
2022-09-15T19:31:21.121Z,14.90
2022-09-15T19:35:25.597Z,14.80
2022-09-15T19:39:29.245Z,14.80
2022-09-15T19:43:33.993Z,14.80
2022-09-15T19:47:40.370Z,14.70
2022-09-15T19:51:47.701Z,14.60
2022-09-15T19:55:54.141Z,14.60
2022-09-15T19:59:57.523Z,14.70
2022-09-15T20:04:02.164Z,14.70
2022-09-15T20:08:06.329Z,14.50
2022-09-15T20:12:14.480Z,14.20
2022-09-15T20:16:20.831Z,14.00
2022-09-15T20:20:35.563Z,13.80
2022-09-15T20:29:08.687Z,13.70
2022-09-15T20:55:52.681Z,13.70
2022-09-15T21:00:12.783Z,13.60
2022-09-15T21:40:48.104Z,13.00
2022-09-15T22:12:04.125Z,12.40
2022-09-15T23:20:07.419Z,12.10
2022-09-15T23:47:07.746Z,12.20
